sensor_id;sensor_type;location;lat;lon;timestamp;P1;durP1;ratioP1;P2;durP2;ratioP2
2474;SDS011;1248;48.694;10.160;2023-03-30T00:00:53;10.50;;;7.10;;
2474;SDS011;1248;48.694;10.160;2023-03-30T00:03:21;9.00;;;7.60;;
2474;SDS011;1248;48.694;10.160;2023-03-30T00:05:49;10.27;;;7.07;;
2474;SDS011;1248;48.694;10.160;2023-03-30T00:08:16;9.77;;;7.30;;
2474;SDS011;1248;48.694;10.160;2023-03-30T00:10:44;10.53;;;7.10;;
2474;SDS011;1248;48.694;10.160;2023-03-30T00:13:11;15.10;;;6.93;;
2474;SDS011;1248;48.694;10.160;2023-03-30T00:15:39;9.67;;;6.00;;
2474;SDS011;1248;48.694;10.160;2023-03-30T00:18:07;12.17;;;6.83;;
2474;SDS011;1248;48.694;10.160;2023-03-30T00:20:35;11.77;;;6.80;;
2474;SDS011;1248;48.694;10.160;2023-03-30T00:23:07;11.33;;;7.20;;
2474;SDS011;1248;48.694;10.160;2023-03-30T00:25:34;9.27;;;7.43;;
2474;SDS011;1248;48.694;10.160;2023-03-30T00:28:01;10.53;;;7.30;;
2474;SDS011;1248;48.694;10.160;2023-03-30T00:30:28;9.73;;;6.93;;
2474;SDS011;1248;48.694;10.160;2023-03-30T00:32:55;9.20;;;6.63;;
2474;SDS011;1248;48.694;10.160;2023-03-30T00:35:22;14.17;;;6.87;;
2474;SDS011;1248;48.694;10.160;2023-03-30T00:37:52;11.37;;;6.97;;
2474;SDS011;1248;48.694;10.160;2023-03-30T00:40:20;8.73;;;6.67;;
2474;SDS011;1248;48.694;10.160;2023-03-30T00:42:47;8.70;;;6.40;;
2474;SDS011;1248;48.694;10.160;2023-03-30T00:45:16;14.33;;;7.27;;
2474;SDS011;1248;48.694;10.160;2023-03-30T00:47:49;10.43;;;6.23;;
2474;SDS011;1248;48.694;10.160;2023-03-30T00:50:20;10.60;;;7.23;;
2474;SDS011;1248;48.694;10.160;2023-03-30T00:52:49;14.40;;;6.17;;
2474;SDS011;1248;48.694;10.160;2023-03-30T00:55:20;8.27;;;6.30;;
2474;SDS011;1248;48.694;10.160;2023-03-30T00:57:48;7.77;;;5.53;;
2474;SDS011;1248;48.694;10.160;2023-03-30T01:00:17;10.20;;;6.47;;
2474;SDS011;1248;48.694;10.160;2023-03-30T01:02:46;10.87;;;5.50;;
2474;SDS011;1248;48.694;10.160;2023-03-30T01:05:15;8.77;;;6.50;;
2474;SDS011;1248;48.694;10.160;2023-03-30T01:07:42;14.40;;;5.90;;
2474;SDS011;1248;48.694;10.160;2023-03-30T01:10:12;11.30;;;5.70;;
2474;SDS011;1248;48.694;10.160;2023-03-30T01:12:39;14.33;;;5.07;;
2474;SDS011;1248;48.694;10.160;2023-03-30T01:15:06;11.43;;;5.60;;
2474;SDS011;1248;48.694;10.160;2023-03-30T01:17:34;9.40;;;6.20;;
2474;SDS011;1248;48.694;10.160;2023-03-30T01:20:24;13.60;;;5.53;;
2474;SDS011;1248;48.694;10.160;2023-03-30T01:23:05;18.10;;;5.50;;
2474;SDS011;1248;48.694;10.160;2023-03-30T01:25:53;7.03;;;4.97;;
2474;SDS011;1248;48.694;10.160;2023-03-30T01:28:30;8.30;;;4.50;;
2474;SDS011;1248;48.694;10.160;2023-03-30T01:31:10;10.20;;;5.23;;
2474;SDS011;1248;48.694;10.160;2023-03-30T01:33:57;11.40;;;5.70;;
2474;SDS011;1248;48.694;10.160;2023-03-30T01:39:43;9.03;;;4.90;;
2474;SDS011;1248;48.694;10.160;2023-03-30T01:42:15;7.37;;;5.50;;
2474;SDS011;1248;48.694;10.160;2023-03-30T01:44:47;7.63;;;4.20;;
2474;SDS011;1248;48.694;10.160;2023-03-30T01:47:18;15.80;;;5.10;;
2474;SDS011;1248;48.694;10.160;2023-03-30T01:49:50;9.00;;;4.30;;
2474;SDS011;1248;48.694;10.160;2023-03-30T01:52:23;7.73;;;4.03;;
2474;SDS011;1248;48.694;10.160;2023-03-30T01:54:55;8.40;;;4.50;;
2474;SDS011;1248;48.694;10.160;2023-03-30T01:57:25;11.80;;;4.50;;
2474;SDS011;1248;48.694;10.160;2023-03-30T01:59:54;15.60;;;4.90;;
2474;SDS011;1248;48.694;10.160;2023-03-30T02:02:25;11.40;;;5.57;;
2474;SDS011;1248;48.694;10.160;2023-03-30T02:04:55;9.90;;;4.07;;
2474;SDS011;1248;48.694;10.160;2023-03-30T02:07:24;21.20;;;6.70;;
2474;SDS011;1248;48.694;10.160;2023-03-30T02:09:54;9.27;;;3.43;;
2474;SDS011;1248;48.694;10.160;2023-03-30T02:12:23;15.13;;;4.80;;
2474;SDS011;1248;48.694;10.160;2023-03-30T02:14:53;8.60;;;3.63;;
2474;SDS011;1248;48.694;10.160;2023-03-30T02:17:21;11.90;;;3.93;;
2474;SDS011;1248;48.694;10.160;2023-03-30T02:19:49;13.67;;;4.37;;
2474;SDS011;1248;48.694;10.160;2023-03-30T02:22:17;9.30;;;4.03;;
2474;SDS011;1248;48.694;10.160;2023-03-30T02:24:45;10.70;;;3.60;;
2474;SDS011;1248;48.694;10.160;2023-03-30T02:27:15;12.37;;;5.00;;
2474;SDS011;1248;48.694;10.160;2023-03-30T02:29:43;10.83;;;4.27;;
2474;SDS011;1248;48.694;10.160;2023-03-30T02:32:14;9.77;;;4.43;;
2474;SDS011;1248;48.694;10.160;2023-03-30T02:34:46;13.70;;;4.77;;
2474;SDS011;1248;48.694;10.160;2023-03-30T02:37:32;10.50;;;4.93;;
2474;SDS011;1248;48.694;10.160;2023-03-30T02:40:08;12.77;;;5.53;;
2474;SDS011;1248;48.694;10.160;2023-03-30T02:42:44;19.77;;;5.30;;
2474;SDS011;1248;48.694;10.160;2023-03-30T02:45:22;10.70;;;5.60;;
2474;SDS011;1248;48.694;10.160;2023-03-30T02:47:59;23.53;;;5.90;;
2474;SDS011;1248;48.694;10.160;2023-03-30T02:50:32;8.40;;;4.83;;
2474;SDS011;1248;48.694;10.160;2023-03-30T02:53:04;17.93;;;6.27;;
2474;SDS011;1248;48.694;10.160;2023-03-30T02:55:35;18.03;;;5.47;;
2474;SDS011;1248;48.694;10.160;2023-03-30T02:58:07;22.83;;;5.30;;
2474;SDS011;1248;48.694;10.160;2023-03-30T03:00:39;9.77;;;4.70;;
2474;SDS011;1248;48.694;10.160;2023-03-30T03:03:10;8.23;;;5.60;;
2474;SDS011;1248;48.694;10.160;2023-03-30T03:05:41;11.83;;;5.63;;
2474;SDS011;1248;48.694;10.160;2023-03-30T03:08:11;12.00;;;6.20;;
2474;SDS011;1248;48.694;10.160;2023-03-30T03:10:39;16.53;;;5.87;;
2474;SDS011;1248;48.694;10.160;2023-03-30T03:13:07;14.57;;;6.80;;
2474;SDS011;1248;48.694;10.160;2023-03-30T03:15:35;12.37;;;4.57;;
2474;SDS011;1248;48.694;10.160;2023-03-30T03:18:03;15.70;;;5.40;;
2474;SDS011;1248;48.694;10.160;2023-03-30T03:20:30;14.57;;;6.03;;
2474;SDS011;1248;48.694;10.160;2023-03-30T03:22:57;19.67;;;5.50;;
2474;SDS011;1248;48.694;10.160;2023-03-30T03:25:24;10.03;;;5.50;;
2474;SDS011;1248;48.694;10.160;2023-03-30T03:27:51;10.17;;;5.60;;
2474;SDS011;1248;48.694;10.160;2023-03-30T03:30:20;7.80;;;4.90;;
2474;SDS011;1248;48.694;10.160;2023-03-30T03:32:47;14.57;;;6.07;;
2474;SDS011;1248;48.694;10.160;2023-03-30T03:35:14;11.03;;;5.87;;
2474;SDS011;1248;48.694;10.160;2023-03-30T03:37:41;15.53;;;6.13;;
2474;SDS011;1248;48.694;10.160;2023-03-30T03:40:09;11.97;;;5.00;;
2474;SDS011;1248;48.694;10.160;2023-03-30T03:42:36;14.30;;;6.90;;
2474;SDS011;1248;48.694;10.160;2023-03-30T03:45:04;9.90;;;5.10;;
2474;SDS011;1248;48.694;10.160;2023-03-30T03:47:33;14.03;;;6.03;;
2474;SDS011;1248;48.694;10.160;2023-03-30T03:50:00;21.13;;;8.17;;
2474;SDS011;1248;48.694;10.160;2023-03-30T03:52:28;19.23;;;6.43;;
2474;SDS011;1248;48.694;10.160;2023-03-30T03:54:55;11.37;;;5.53;;
2474;SDS011;1248;48.694;10.160;2023-03-30T03:57:22;14.47;;;6.17;;
2474;SDS011;1248;48.694;10.160;2023-03-30T03:59:50;13.50;;;5.63;;
2474;SDS011;1248;48.694;10.160;2023-03-30T04:02:17;15.83;;;5.30;;
2474;SDS011;1248;48.694;10.160;2023-03-30T04:04:46;16.30;;;5.30;;
2474;SDS011;1248;48.694;10.160;2023-03-30T04:07:13;16.17;;;5.00;;
2474;SDS011;1248;48.694;10.160;2023-03-30T04:09:40;14.50;;;5.93;;
2474;SDS011;1248;48.694;10.160;2023-03-30T04:12:07;15.57;;;6.03;;
2474;SDS011;1248;48.694;10.160;2023-03-30T04:14:34;17.70;;;6.37;;
2474;SDS011;1248;48.694;10.160;2023-03-30T04:17:01;11.83;;;5.20;;
2474;SDS011;1248;48.694;10.160;2023-03-30T04:19:28;18.23;;;5.87;;
2474;SDS011;1248;48.694;10.160;2023-03-30T04:21:57;20.50;;;6.40;;
2474;SDS011;1248;48.694;10.160;2023-03-30T04:24:25;12.37;;;4.83;;
2474;SDS011;1248;48.694;10.160;2023-03-30T04:26:54;24.57;;;6.90;;
2474;SDS011;1248;48.694;10.160;2023-03-30T04:29:22;18.27;;;6.27;;
2474;SDS011;1248;48.694;10.160;2023-03-30T04:31:49;13.17;;;5.20;;
2474;SDS011;1248;48.694;10.160;2023-03-30T04:34:16;16.13;;;4.67;;
2474;SDS011;1248;48.694;10.160;2023-03-30T04:36:46;20.77;;;6.27;;
2474;SDS011;1248;48.694;10.160;2023-03-30T04:39:14;17.90;;;6.03;;
2474;SDS011;1248;48.694;10.160;2023-03-30T04:41:42;21.00;;;6.47;;
2474;SDS011;1248;48.694;10.160;2023-03-30T04:44:10;22.57;;;7.33;;
2474;SDS011;1248;48.694;10.160;2023-03-30T04:46:37;21.60;;;6.97;;
2474;SDS011;1248;48.694;10.160;2023-03-30T04:49:04;20.33;;;7.20;;
2474;SDS011;1248;48.694;10.160;2023-03-30T04:51:31;11.77;;;5.53;;
2474;SDS011;1248;48.694;10.160;2023-03-30T04:53:58;18.83;;;5.50;;
2474;SDS011;1248;48.694;10.160;2023-03-30T04:56:28;22.03;;;6.73;;
2474;SDS011;1248;48.694;10.160;2023-03-30T04:58:55;14.97;;;5.07;;
2474;SDS011;1248;48.694;10.160;2023-03-30T05:01:22;15.20;;;7.10;;
2474;SDS011;1248;48.694;10.160;2023-03-30T05:03:49;15.43;;;6.50;;
2474;SDS011;1248;48.694;10.160;2023-03-30T05:06:16;16.23;;;5.60;;
2474;SDS011;1248;48.694;10.160;2023-03-30T05:08:43;21.20;;;7.10;;
2474;SDS011;1248;48.694;10.160;2023-03-30T05:11:10;16.63;;;7.80;;
2474;SDS011;1248;48.694;10.160;2023-03-30T05:13:39;17.80;;;6.90;;
2474;SDS011;1248;48.694;10.160;2023-03-30T05:16:06;16.07;;;5.13;;
2474;SDS011;1248;48.694;10.160;2023-03-30T05:18:34;12.27;;;6.00;;
2474;SDS011;1248;48.694;10.160;2023-03-30T05:21:03;15.93;;;5.77;;
2474;SDS011;1248;48.694;10.160;2023-03-30T05:23:30;17.27;;;6.07;;
2474;SDS011;1248;48.694;10.160;2023-03-30T05:25:57;18.10;;;6.87;;
2474;SDS011;1248;48.694;10.160;2023-03-30T05:28:24;17.63;;;6.83;;
2474;SDS011;1248;48.694;10.160;2023-03-30T05:30:53;18.47;;;7.87;;
2474;SDS011;1248;48.694;10.160;2023-03-30T05:33:20;21.93;;;6.10;;
2474;SDS011;1248;48.694;10.160;2023-03-30T05:35:49;16.17;;;6.83;;
2474;SDS011;1248;48.694;10.160;2023-03-30T05:38:16;14.77;;;6.23;;
2474;SDS011;1248;48.694;10.160;2023-03-30T05:40:43;14.87;;;7.23;;
2474;SDS011;1248;48.694;10.160;2023-03-30T05:43:10;18.40;;;7.30;;
2474;SDS011;1248;48.694;10.160;2023-03-30T05:45:37;20.60;;;7.50;;
2474;SDS011;1248;48.694;10.160;2023-03-30T05:48:06;25.63;;;7.03;;
2474;SDS011;1248;48.694;10.160;2023-03-30T05:50:33;21.50;;;8.57;;
2474;SDS011;1248;48.694;10.160;2023-03-30T05:53:00;16.67;;;8.97;;
2474;SDS011;1248;48.694;10.160;2023-03-30T05:55:27;18.60;;;7.87;;
2474;SDS011;1248;48.694;10.160;2023-03-30T05:57:54;24.90;;;9.33;;
2474;SDS011;1248;48.694;10.160;2023-03-30T06:00:22;16.07;;;7.30;;
2474;SDS011;1248;48.694;10.160;2023-03-30T06:02:50;14.37;;;6.90;;
2474;SDS011;1248;48.694;10.160;2023-03-30T06:05:19;22.13;;;7.53;;
2474;SDS011;1248;48.694;10.160;2023-03-30T06:07:46;15.70;;;6.93;;
2474;SDS011;1248;48.694;10.160;2023-03-30T06:10:14;14.43;;;7.60;;
2474;SDS011;1248;48.694;10.160;2023-03-30T06:12:41;20.60;;;9.30;;
2474;SDS011;1248;48.694;10.160;2023-03-30T06:15:09;17.60;;;8.50;;
2474;SDS011;1248;48.694;10.160;2023-03-30T06:17:36;18.27;;;8.27;;
2474;SDS011;1248;48.694;10.160;2023-03-30T06:20:04;17.67;;;8.10;;
2474;SDS011;1248;48.694;10.160;2023-03-30T06:22:37;20.13;;;8.60;;
2474;SDS011;1248;48.694;10.160;2023-03-30T06:25:04;11.50;;;7.10;;
2474;SDS011;1248;48.694;10.160;2023-03-30T06:27:33;19.77;;;7.80;;
2474;SDS011;1248;48.694;10.160;2023-03-30T06:30:00;21.37;;;8.73;;
2474;SDS011;1248;48.694;10.160;2023-03-30T06:32:28;25.67;;;11.53;;
2474;SDS011;1248;48.694;10.160;2023-03-30T06:34:55;24.67;;;9.27;;
2474;SDS011;1248;48.694;10.160;2023-03-30T06:37:22;24.77;;;9.40;;
2474;SDS011;1248;48.694;10.160;2023-03-30T06:39:51;20.80;;;8.10;;
2474;SDS011;1248;48.694;10.160;2023-03-30T06:42:18;21.00;;;9.37;;
2474;SDS011;1248;48.694;10.160;2023-03-30T06:44:45;23.63;;;8.60;;
2474;SDS011;1248;48.694;10.160;2023-03-30T06:47:12;26.10;;;7.67;;
2474;SDS011;1248;48.694;10.160;2023-03-30T06:49:39;19.93;;;9.10;;
2474;SDS011;1248;48.694;10.160;2023-03-30T06:52:06;20.93;;;9.70;;
2474;SDS011;1248;48.694;10.160;2023-03-30T06:54:33;23.77;;;8.10;;
2474;SDS011;1248;48.694;10.160;2023-03-30T06:57:01;20.00;;;8.37;;
2474;SDS011;1248;48.694;10.160;2023-03-30T06:59:29;28.90;;;9.37;;
2474;SDS011;1248;48.694;10.160;2023-03-30T07:01:57;21.80;;;10.20;;
2474;SDS011;1248;48.694;10.160;2023-03-30T07:04:24;17.50;;;8.67;;
2474;SDS011;1248;48.694;10.160;2023-03-30T07:06:52;26.67;;;8.23;;
2474;SDS011;1248;48.694;10.160;2023-03-30T07:09:22;25.43;;;9.50;;
2474;SDS011;1248;48.694;10.160;2023-03-30T07:11:49;21.17;;;8.07;;
2474;SDS011;1248;48.694;10.160;2023-03-30T07:14:18;13.73;;;7.30;;
2474;SDS011;1248;48.694;10.160;2023-03-30T07:16:45;22.40;;;7.50;;
2474;SDS011;1248;48.694;10.160;2023-03-30T07:19:13;20.47;;;7.90;;
2474;SDS011;1248;48.694;10.160;2023-03-30T07:21:40;16.33;;;7.40;;
2474;SDS011;1248;48.694;10.160;2023-03-30T07:24:08;17.03;;;7.33;;
2474;SDS011;1248;48.694;10.160;2023-03-30T07:26:35;19.33;;;8.17;;
2474;SDS011;1248;48.694;10.160;2023-03-30T07:29:02;16.37;;;7.90;;
2474;SDS011;1248;48.694;10.160;2023-03-30T07:31:31;18.50;;;8.07;;
2474;SDS011;1248;48.694;10.160;2023-03-30T07:33:58;18.00;;;8.47;;
2474;SDS011;1248;48.694;10.160;2023-03-30T07:36:25;17.70;;;7.37;;
2474;SDS011;1248;48.694;10.160;2023-03-30T07:38:52;21.40;;;7.60;;
2474;SDS011;1248;48.694;10.160;2023-03-30T07:41:19;20.70;;;7.90;;
2474;SDS011;1248;48.694;10.160;2023-03-30T07:43:46;20.53;;;8.40;;
2474;SDS011;1248;48.694;10.160;2023-03-30T07:46:13;24.00;;;10.00;;
2474;SDS011;1248;48.694;10.160;2023-03-30T07:48:41;22.63;;;9.17;;
2474;SDS011;1248;48.694;10.160;2023-03-30T07:51:09;14.03;;;7.60;;
2474;SDS011;1248;48.694;10.160;2023-03-30T07:53:38;25.43;;;7.70;;
2474;SDS011;1248;48.694;10.160;2023-03-30T07:56:05;13.30;;;7.63;;
2474;SDS011;1248;48.694;10.160;2023-03-30T07:58:32;17.10;;;8.37;;
2474;SDS011;1248;48.694;10.160;2023-03-30T08:00:59;22.50;;;9.97;;
2474;SDS011;1248;48.694;10.160;2023-03-30T08:03:29;21.70;;;8.20;;
2474;SDS011;1248;48.694;10.160;2023-03-30T08:05:59;21.97;;;8.60;;
2474;SDS011;1248;48.694;10.160;2023-03-30T08:08:29;19.03;;;7.87;;
2474;SDS011;1248;48.694;10.160;2023-03-30T08:10:56;14.67;;;7.23;;
2474;SDS011;1248;48.694;10.160;2023-03-30T08:13:23;22.20;;;8.47;;
2474;SDS011;1248;48.694;10.160;2023-03-30T08:15:50;18.13;;;7.57;;
2474;SDS011;1248;48.694;10.160;2023-03-30T08:18:19;11.37;;;6.93;;
2474;SDS011;1248;48.694;10.160;2023-03-30T08:20:48;12.50;;;6.40;;
2474;SDS011;1248;48.694;10.160;2023-03-30T08:23:18;21.30;;;6.73;;
2474;SDS011;1248;48.694;10.160;2023-03-30T08:25:45;19.73;;;7.60;;
2474;SDS011;1248;48.694;10.160;2023-03-30T08:28:17;14.23;;;6.07;;
2474;SDS011;1248;48.694;10.160;2023-03-30T08:30:44;16.10;;;5.93;;
2474;SDS011;1248;48.694;10.160;2023-03-30T08:33:11;16.00;;;6.00;;
2474;SDS011;1248;48.694;10.160;2023-03-30T08:35:39;14.33;;;4.80;;
2474;SDS011;1248;48.694;10.160;2023-03-30T08:38:06;25.90;;;7.70;;
2474;SDS011;1248;48.694;10.160;2023-03-30T08:40:38;16.73;;;5.33;;
2474;SDS011;1248;48.694;10.160;2023-03-30T08:43:09;15.70;;;5.60;;
2474;SDS011;1248;48.694;10.160;2023-03-30T08:45:51;10.63;;;4.67;;
2474;SDS011;1248;48.694;10.160;2023-03-30T08:48:19;15.80;;;5.00;;
2474;SDS011;1248;48.694;10.160;2023-03-30T08:50:51;14.43;;;4.00;;
2474;SDS011;1248;48.694;10.160;2023-03-30T08:53:20;17.13;;;5.00;;
2474;SDS011;1248;48.694;10.160;2023-03-30T08:55:50;9.20;;;3.60;;
2474;SDS011;1248;48.694;10.160;2023-03-30T08:58:21;13.80;;;4.20;;
2474;SDS011;1248;48.694;10.160;2023-03-30T09:00:52;13.57;;;3.70;;
2474;SDS011;1248;48.694;10.160;2023-03-30T09:03:25;7.40;;;3.80;;
2474;SDS011;1248;48.694;10.160;2023-03-30T09:05:57;15.23;;;3.93;;
2474;SDS011;1248;48.694;10.160;2023-03-30T09:08:26;8.80;;;3.73;;
2474;SDS011;1248;48.694;10.160;2023-03-30T09:10:57;8.47;;;3.93;;
2474;SDS011;1248;48.694;10.160;2023-03-30T09:13:27;8.90;;;4.43;;
2474;SDS011;1248;48.694;10.160;2023-03-30T09:15:58;12.30;;;5.00;;
2474;SDS011;1248;48.694;10.160;2023-03-30T09:18:29;8.13;;;3.33;;
2474;SDS011;1248;48.694;10.160;2023-03-30T09:20:57;5.43;;;3.10;;
2474;SDS011;1248;48.694;10.160;2023-03-30T09:23:26;16.13;;;5.60;;
2474;SDS011;1248;48.694;10.160;2023-03-30T09:25:59;7.10;;;3.50;;
2474;SDS011;1248;48.694;10.160;2023-03-30T09:28:32;5.70;;;3.33;;
2474;SDS011;1248;48.694;10.160;2023-03-30T09:30:59;6.90;;;2.97;;
2474;SDS011;1248;48.694;10.160;2023-03-30T09:33:30;7.47;;;3.33;;
2474;SDS011;1248;48.694;10.160;2023-03-30T09:36:12;12.30;;;3.43;;
2474;SDS011;1248;48.694;10.160;2023-03-30T09:38:41;6.70;;;2.97;;
2474;SDS011;1248;48.694;10.160;2023-03-30T09:41:27;4.47;;;2.70;;
2474;SDS011;1248;48.694;10.160;2023-03-30T09:43:59;5.00;;;2.73;;
2474;SDS011;1248;48.694;10.160;2023-03-30T09:46:27;3.43;;;1.93;;
2474;SDS011;1248;48.694;10.160;2023-03-30T09:48:55;5.20;;;1.77;;
2474;SDS011;1248;48.694;10.160;2023-03-30T09:51:37;3.50;;;1.80;;
2474;SDS011;1248;48.694;10.160;2023-03-30T09:54:18;2.97;;;1.40;;
2474;SDS011;1248;48.694;10.160;2023-03-30T09:56:46;4.90;;;1.37;;
2474;SDS011;1248;48.694;10.160;2023-03-30T09:59:19;4.50;;;2.10;;
2474;SDS011;1248;48.694;10.160;2023-03-30T10:01:47;2.90;;;1.70;;
2474;SDS011;1248;48.694;10.160;2023-03-30T10:04:14;5.27;;;2.13;;
2474;SDS011;1248;48.694;10.160;2023-03-30T10:06:44;3.10;;;1.67;;
2474;SDS011;1248;48.694;10.160;2023-03-30T10:09:13;3.20;;;2.00;;
2474;SDS011;1248;48.694;10.160;2023-03-30T10:11:41;8.37;;;1.80;;
2474;SDS011;1248;48.694;10.160;2023-03-30T10:14:27;3.60;;;2.07;;
2474;SDS011;1248;48.694;10.160;2023-03-30T10:16:56;2.83;;;2.40;;
2474;SDS011;1248;48.694;10.160;2023-03-30T10:19:24;4.80;;;2.50;;
2474;SDS011;1248;48.694;10.160;2023-03-30T10:21:52;4.70;;;2.70;;
2474;SDS011;1248;48.694;10.160;2023-03-30T10:24:20;3.53;;;2.13;;
2474;SDS011;1248;48.694;10.160;2023-03-30T10:26:50;4.40;;;2.40;;
2474;SDS011;1248;48.694;10.160;2023-03-30T10:29:18;7.03;;;3.23;;
2474;SDS011;1248;48.694;10.160;2023-03-30T10:31:50;2.80;;;1.80;;
2474;SDS011;1248;48.694;10.160;2023-03-30T10:34:22;3.20;;;2.70;;
2474;SDS011;1248;48.694;10.160;2023-03-30T10:36:56;3.70;;;2.80;;
2474;SDS011;1248;48.694;10.160;2023-03-30T10:39:24;4.60;;;2.67;;
2474;SDS011;1248;48.694;10.160;2023-03-30T10:41:55;4.70;;;2.70;;
2474;SDS011;1248;48.694;10.160;2023-03-30T10:44:24;4.37;;;2.90;;
2474;SDS011;1248;48.694;10.160;2023-03-30T10:46:53;5.10;;;2.50;;
2474;SDS011;1248;48.694;10.160;2023-03-30T10:49:30;5.77;;;2.70;;
2474;SDS011;1248;48.694;10.160;2023-03-30T10:52:07;6.23;;;2.67;;
2474;SDS011;1248;48.694;10.160;2023-03-30T10:54:38;4.70;;;3.17;;
2474;SDS011;1248;48.694;10.160;2023-03-30T10:57:08;6.70;;;3.13;;
2474;SDS011;1248;48.694;10.160;2023-03-30T10:59:41;8.33;;;3.80;;
2474;SDS011;1248;48.694;10.160;2023-03-30T11:02:39;6.83;;;3.40;;
2474;SDS011;1248;48.694;10.160;2023-03-30T11:05:11;6.43;;;3.50;;
2474;SDS011;1248;48.694;10.160;2023-03-30T11:07:42;12.07;;;4.00;;
2474;SDS011;1248;48.694;10.160;2023-03-30T11:10:13;7.63;;;3.37;;
2474;SDS011;1248;48.694;10.160;2023-03-30T11:12:42;8.00;;;3.80;;
2474;SDS011;1248;48.694;10.160;2023-03-30T11:15:14;6.77;;;3.87;;
2474;SDS011;1248;48.694;10.160;2023-03-30T11:17:47;7.10;;;3.83;;
2474;SDS011;1248;48.694;10.160;2023-03-30T11:20:19;6.60;;;4.67;;
2474;SDS011;1248;48.694;10.160;2023-03-30T11:22:53;6.63;;;4.23;;
2474;SDS011;1248;48.694;10.160;2023-03-30T11:25:24;7.97;;;3.47;;
2474;SDS011;1248;48.694;10.160;2023-03-30T11:27:58;7.20;;;3.57;;
2474;SDS011;1248;48.694;10.160;2023-03-30T11:30:28;4.00;;;3.07;;
2474;SDS011;1248;48.694;10.160;2023-03-30T11:32:57;6.70;;;3.27;;
2474;SDS011;1248;48.694;10.160;2023-03-30T11:35:29;8.57;;;3.67;;
2474;SDS011;1248;48.694;10.160;2023-03-30T11:38:02;8.13;;;4.20;;
2474;SDS011;1248;48.694;10.160;2023-03-30T11:40:37;4.73;;;3.33;;
2474;SDS011;1248;48.694;10.160;2023-03-30T11:43:09;6.53;;;4.17;;
2474;SDS011;1248;48.694;10.160;2023-03-30T11:45:45;11.43;;;3.70;;
2474;SDS011;1248;48.694;10.160;2023-03-30T11:48:31;5.80;;;3.80;;
2474;SDS011;1248;48.694;10.160;2023-03-30T11:51:24;6.77;;;4.27;;
2474;SDS011;1248;48.694;10.160;2023-03-30T11:54:03;4.77;;;3.30;;
2474;SDS011;1248;48.694;10.160;2023-03-30T11:56:44;7.17;;;4.40;;
2474;SDS011;1248;48.694;10.160;2023-03-30T11:59:18;5.37;;;4.03;;
2474;SDS011;1248;48.694;10.160;2023-03-30T12:01:57;4.43;;;3.50;;
2474;SDS011;1248;48.694;10.160;2023-03-30T12:04:51;6.07;;;3.30;;
2474;SDS011;1248;48.694;10.160;2023-03-30T12:07:27;13.23;;;3.60;;
2474;SDS011;1248;48.694;10.160;2023-03-30T12:09:58;7.73;;;4.13;;
2474;SDS011;1248;48.694;10.160;2023-03-30T12:12:29;5.27;;;3.70;;
2474;SDS011;1248;48.694;10.160;2023-03-30T12:15:00;7.67;;;3.73;;
2474;SDS011;1248;48.694;10.160;2023-03-30T12:17:36;5.77;;;3.57;;
2474;SDS011;1248;48.694;10.160;2023-03-30T12:20:11;6.37;;;4.30;;
2474;SDS011;1248;48.694;10.160;2023-03-30T12:22:44;7.90;;;4.00;;
2474;SDS011;1248;48.694;10.160;2023-03-30T12:25:20;11.57;;;5.03;;
2474;SDS011;1248;48.694;10.160;2023-03-30T12:27:56;14.13;;;4.70;;
2474;SDS011;1248;48.694;10.160;2023-03-30T12:30:27;4.70;;;3.63;;
2474;SDS011;1248;48.694;10.160;2023-03-30T12:33:15;6.23;;;3.20;;
2474;SDS011;1248;48.694;10.160;2023-03-30T12:35:50;4.57;;;4.13;;
2474;SDS011;1248;48.694;10.160;2023-03-30T12:38:23;10.43;;;3.70;;
2474;SDS011;1248;48.694;10.160;2023-03-30T12:41:01;9.57;;;3.77;;
2474;SDS011;1248;48.694;10.160;2023-03-30T12:43:57;6.07;;;3.50;;
2474;SDS011;1248;48.694;10.160;2023-03-30T12:46:36;8.00;;;3.37;;
2474;SDS011;1248;48.694;10.160;2023-03-30T12:49:13;6.90;;;4.23;;
2474;SDS011;1248;48.694;10.160;2023-03-30T12:51:52;5.93;;;4.30;;
2474;SDS011;1248;48.694;10.160;2023-03-30T12:54:26;6.80;;;2.80;;
2474;SDS011;1248;48.694;10.160;2023-03-30T12:57:06;9.43;;;4.13;;
2474;SDS011;1248;48.694;10.160;2023-03-30T13:02:54;6.33;;;3.00;;
2474;SDS011;1248;48.694;10.160;2023-03-30T13:05:29;6.23;;;3.00;;
2474;SDS011;1248;48.694;10.160;2023-03-30T13:08:00;7.30;;;3.80;;
2474;SDS011;1248;48.694;10.160;2023-03-30T13:10:38;6.00;;;3.10;;
2474;SDS011;1248;48.694;10.160;2023-03-30T13:13:21;4.07;;;2.73;;
2474;SDS011;1248;48.694;10.160;2023-03-30T13:15:50;6.77;;;3.43;;
2474;SDS011;1248;48.694;10.160;2023-03-30T13:18:22;5.50;;;3.00;;
2474;SDS011;1248;48.694;10.160;2023-03-30T13:21:14;6.33;;;3.27;;
2474;SDS011;1248;48.694;10.160;2023-03-30T13:23:43;7.43;;;4.30;;
2474;SDS011;1248;48.694;10.160;2023-03-30T13:26:37;4.93;;;3.47;;
2474;SDS011;1248;48.694;10.160;2023-03-30T13:29:07;11.17;;;4.00;;
2474;SDS011;1248;48.694;10.160;2023-03-30T13:31:44;8.83;;;3.63;;
2474;SDS011;1248;48.694;10.160;2023-03-30T13:37:44;6.57;;;3.50;;
2474;SDS011;1248;48.694;10.160;2023-03-30T13:40:17;7.00;;;4.00;;
2474;SDS011;1248;48.694;10.160;2023-03-30T13:42:48;6.30;;;3.60;;
2474;SDS011;1248;48.694;10.160;2023-03-30T13:45:24;7.00;;;4.07;;
2474;SDS011;1248;48.694;10.160;2023-03-30T13:47:59;11.23;;;4.23;;
2474;SDS011;1248;48.694;10.160;2023-03-30T13:50:32;6.30;;;3.47;;
2474;SDS011;1248;48.694;10.160;2023-03-30T13:53:01;5.63;;;3.63;;
2474;SDS011;1248;48.694;10.160;2023-03-30T13:55:30;8.50;;;3.37;;
2474;SDS011;1248;48.694;10.160;2023-03-30T13:57:59;4.70;;;3.10;;
2474;SDS011;1248;48.694;10.160;2023-03-30T14:00:32;3.93;;;3.00;;
2474;SDS011;1248;48.694;10.160;2023-03-30T14:05:57;3.60;;;2.73;;
2474;SDS011;1248;48.694;10.160;2023-03-30T14:08:29;5.53;;;2.90;;
2474;SDS011;1248;48.694;10.160;2023-03-30T14:11:00;5.67;;;3.10;;
2474;SDS011;1248;48.694;10.160;2023-03-30T14:13:29;5.03;;;2.80;;
2474;SDS011;1248;48.694;10.160;2023-03-30T14:15:56;6.83;;;2.97;;
2474;SDS011;1248;48.694;10.160;2023-03-30T14:18:24;3.53;;;3.20;;
2474;SDS011;1248;48.694;10.160;2023-03-30T14:20:52;4.03;;;3.07;;
2474;SDS011;1248;48.694;10.160;2023-03-30T14:23:24;4.67;;;2.90;;
2474;SDS011;1248;48.694;10.160;2023-03-30T14:25:58;6.38;;;3.20;;
2474;SDS011;1248;48.694;10.160;2023-03-30T14:28:26;3.87;;;3.50;;
2474;SDS011;1248;48.694;10.160;2023-03-30T14:30:54;4.87;;;2.93;;
2474;SDS011;1248;48.694;10.160;2023-03-30T14:33:22;6.70;;;3.27;;
2474;SDS011;1248;48.694;10.160;2023-03-30T14:35:51;5.10;;;2.63;;
2474;SDS011;1248;48.694;10.160;2023-03-30T14:38:21;7.00;;;3.40;;
2474;SDS011;1248;48.694;10.160;2023-03-30T14:40:50;7.40;;;3.53;;
2474;SDS011;1248;48.694;10.160;2023-03-30T14:43:20;7.20;;;3.03;;
2474;SDS011;1248;48.694;10.160;2023-03-30T14:45:49;7.20;;;2.73;;
2474;SDS011;1248;48.694;10.160;2023-03-30T14:48:20;3.50;;;2.67;;
2474;SDS011;1248;48.694;10.160;2023-03-30T14:50:49;4.20;;;2.40;;
2474;SDS011;1248;48.694;10.160;2023-03-30T14:53:17;6.23;;;2.47;;
2474;SDS011;1248;48.694;10.160;2023-03-30T14:55:48;4.57;;;2.47;;
2474;SDS011;1248;48.694;10.160;2023-03-30T14:58:15;2.70;;;2.10;;
2474;SDS011;1248;48.694;10.160;2023-03-30T15:00:44;5.50;;;2.63;;
2474;SDS011;1248;48.694;10.160;2023-03-30T15:03:11;8.63;;;2.67;;
2474;SDS011;1248;48.694;10.160;2023-03-30T15:05:38;7.30;;;2.30;;
2474;SDS011;1248;48.694;10.160;2023-03-30T15:08:11;3.80;;;2.33;;
2474;SDS011;1248;48.694;10.160;2023-03-30T15:10:42;7.57;;;2.60;;
2474;SDS011;1248;48.694;10.160;2023-03-30T15:13:11;5.40;;;2.47;;
2474;SDS011;1248;48.694;10.160;2023-03-30T15:15:46;4.43;;;2.30;;
2474;SDS011;1248;48.694;10.160;2023-03-30T15:18:14;4.23;;;2.20;;
2474;SDS011;1248;48.694;10.160;2023-03-30T15:20:45;5.93;;;2.13;;
2474;SDS011;1248;48.694;10.160;2023-03-30T15:23:12;5.00;;;2.20;;
2474;SDS011;1248;48.694;10.160;2023-03-30T15:25:39;6.60;;;2.10;;